createdAt,value
2019-01-15T00:02:05.369Z,99130.52
2019-01-15T00:04:34.258Z,99123.13
2019-01-15T00:07:03.106Z,99134.36
2019-01-15T00:09:31.903Z,99132.22
2019-01-15T00:12:07.628Z,99139.56
2019-01-15T00:14:31.403Z,99143.98
2019-01-15T00:17:00.288Z,99147.61
2019-01-15T00:19:29.162Z,99151.95
2019-01-15T00:21:58.131Z,99151.69
2019-01-15T00:24:26.923Z,99158.97
2019-01-15T00:26:55.709Z,99162.60
2019-01-15T00:29:24.519Z,99159.67
2019-01-15T00:31:53.394Z,99164.20
2019-01-15T00:34:22.306Z,99163.23
2019-01-15T00:36:51.108Z,99161.75
2019-01-15T00:39:20.432Z,99173.95
2019-01-15T00:41:49.305Z,99175.51
2019-01-15T00:44:18.109Z,99187.91
2019-01-15T00:46:46.921Z,99184.48
2019-01-15T00:49:15.889Z,99185.59
2019-01-15T00:51:44.761Z,99184.59
2019-01-15T00:54:13.705Z,99183.70
2019-01-15T00:56:42.685Z,99195.79
2019-01-15T00:59:11.501Z,99192.71
2019-01-15T01:01:40.436Z,99197.34
2019-01-15T01:04:09.424Z,99200.20
2019-01-15T01:06:38.278Z,99198.05
2019-01-15T01:09:10.587Z,99204.20
2019-01-15T01:11:39.531Z,99204.61
2019-01-15T01:14:08.484Z,99213.36
2019-01-15T01:16:37.467Z,99208.09
2019-01-15T01:19:06.473Z,99206.35
2019-01-15T01:21:35.425Z,99212.51
2019-01-15T01:24:04.478Z,99216.27
2019-01-15T01:26:33.355Z,99227.30
2019-01-15T01:29:02.298Z,99228.75
2019-01-15T01:31:31.227Z,99223.93
2019-01-15T01:34:00.117Z,99223.02
2019-01-15T01:36:29.128Z,99220.66
2019-01-15T01:38:57.933Z,99228.00
2019-01-15T01:41:26.721Z,99246.23
2019-01-15T01:43:55.516Z,99249.84
2019-01-15T01:46:24.393Z,99248.41
2019-01-15T01:48:53.500Z,99255.55
2019-01-15T01:51:22.890Z,99258.93
2019-01-15T01:53:51.743Z,99257.94
2019-01-15T01:56:20.549Z,99250.53
2019-01-15T01:58:49.349Z,99251.66
2019-01-15T02:01:18.149Z,99250.63
2019-01-15T02:03:47.027Z,99253.40
2019-01-15T02:06:15.911Z,99253.67
2019-01-15T02:08:44.942Z,99250.49
2019-01-15T02:11:14.109Z,99239.47
2019-01-15T02:13:44.781Z,99240.19
2019-01-15T02:16:13.948Z,99244.05
2019-01-15T02:18:42.823Z,99239.06
2019-01-15T02:21:11.699Z,99239.77
2019-01-15T02:23:40.504Z,99233.72
2019-01-15T02:26:09.320Z,99244.17
2019-01-15T02:28:38.099Z,99239.70
2019-01-15T02:31:06.897Z,99234.23
2019-01-15T02:33:35.766Z,99244.92
2019-01-15T02:36:04.812Z,99245.91
2019-01-15T02:38:33.815Z,99242.39
2019-01-15T02:41:02.683Z,99243.67
2019-01-15T02:43:31.551Z,99251.83
2019-01-15T02:46:00.506Z,99245.30
2019-01-15T02:48:29.286Z,99251.48
2019-01-15T02:50:58.091Z,99252.00
2019-01-15T02:53:26.968Z,99246.73
2019-01-15T02:55:55.875Z,99246.48
2019-01-15T02:58:25.458Z,99252.13
2019-01-15T03:00:54.420Z,99246.52
2019-01-15T03:03:23.333Z,99240.67
2019-01-15T03:05:52.454Z,99236.34
2019-01-15T03:08:21.312Z,99242.92
2019-01-15T03:10:50.180Z,99237.14
2019-01-15T03:13:19.054Z,99246.48
2019-01-15T03:15:47.907Z,99248.08
2019-01-15T03:18:17.062Z,99247.35
2019-01-15T03:20:46.250Z,99244.54
2019-01-15T03:23:15.075Z,99242.97
2019-01-15T03:25:44.018Z,99246.73
2019-01-15T03:28:12.875Z,99245.21
2019-01-15T03:30:41.768Z,99252.14
2019-01-15T03:33:10.556Z,99245.05
2019-01-15T03:35:39.404Z,99242.55
2019-01-15T03:38:08.342Z,99242.11
2019-01-15T03:40:37.406Z,99245.21
2019-01-15T03:43:06.375Z,99241.89
2019-01-15T03:45:35.231Z,99242.02
2019-01-15T03:48:04.192Z,99241.61
2019-01-15T03:50:33.242Z,99244.64
2019-01-15T03:53:02.269Z,99232.46
2019-01-15T03:55:31.233Z,99238.86
2019-01-15T03:58:00.134Z,99230.63
2019-01-15T04:00:29.013Z,99228.44
2019-01-15T04:02:58.089Z,99230.39
2019-01-15T04:05:28.056Z,99235.92
2019-01-15T04:08:00.867Z,99237.86
2019-01-15T04:10:30.312Z,99239.23
2019-01-15T04:12:59.284Z,99220.93
2019-01-15T04:15:28.480Z,99216.52
2019-01-15T04:17:58.521Z,99216.52
2019-01-15T04:20:27.410Z,99211.20
2019-01-15T04:22:56.392Z,99215.94
2019-01-15T04:25:25.284Z,99221.92
2019-01-15T04:27:54.291Z,99222.50
2019-01-15T04:30:24.123Z,99231.44
2019-01-15T04:32:53.011Z,99234.38
2019-01-15T04:35:21.897Z,99233.77
2019-01-15T04:37:50.846Z,99234.28
2019-01-15T04:40:21.481Z,99227.55
2019-01-15T04:42:50.799Z,99221.06
2019-01-15T04:45:23.991Z,99222.23
2019-01-15T04:47:52.932Z,99220.52
2019-01-15T04:50:21.880Z,99222.09
2019-01-15T04:52:58.835Z,99222.20
2019-01-15T04:55:27.728Z,99226.50
2019-01-15T04:57:56.616Z,99225.06
2019-01-15T05:00:25.575Z,99225.67
2019-01-15T05:02:56.283Z,99229.56
2019-01-15T05:05:25.140Z,99223.55
2019-01-15T05:07:54.081Z,99222.12
2019-01-15T05:10:22.987Z,99225.98
2019-01-15T05:12:51.819Z,99240.94
2019-01-15T05:15:20.739Z,99241.17
2019-01-15T05:17:49.620Z,99244.55
2019-01-15T05:20:18.674Z,99255.28
2019-01-15T05:22:47.658Z,99261.87
2019-01-15T05:25:18.613Z,99266.20
2019-01-15T05:27:47.677Z,99262.48
2019-01-15T05:30:21.944Z,99257.60
2019-01-15T05:32:51.200Z,99262.31
2019-01-15T05:35:20.171Z,99259.45
2019-01-15T05:37:49.195Z,99250.43
2019-01-15T05:40:18.139Z,99244.15
2019-01-15T05:42:47.064Z,99238.10
2019-01-15T05:45:21.809Z,99244.35
2019-01-15T05:47:52.644Z,99242.34
2019-01-15T05:50:27.954Z,99243.12
2019-01-15T05:52:56.962Z,99244.94
2019-01-15T05:55:26.024Z,99252.07
2019-01-15T05:57:54.998Z,99248.52
2019-01-15T06:00:23.973Z,99252.14
2019-01-15T06:02:52.940Z,99242.68
2019-01-15T06:05:21.914Z,99244.66
2019-01-15T06:07:50.868Z,99239.54
2019-01-15T06:10:19.783Z,99244.45
2019-01-15T06:12:48.643Z,99249.95
2019-01-15T06:15:17.603Z,99251.14
2019-01-15T06:17:46.591Z,99256.20
2019-01-15T06:20:15.979Z,99269.14
2019-01-15T06:22:44.957Z,99255.80
2019-01-15T06:25:14.359Z,99251.34
2019-01-15T06:27:43.488Z,99252.13
2019-01-15T06:30:13.970Z,99253.21
2019-01-15T06:32:42.899Z,99249.46
2019-01-15T06:35:12.206Z,99254.70
2019-01-15T06:37:41.200Z,99250.23
2019-01-15T06:40:12.028Z,99259.05
2019-01-15T06:42:40.960Z,99254.28
2019-01-15T06:45:15.863Z,99257.06
2019-01-15T06:47:44.814Z,99255.23
2019-01-15T06:50:14.622Z,99255.48
2019-01-15T06:52:43.826Z,99252.95
2019-01-15T06:55:14.809Z,99249.77
2019-01-15T06:57:43.795Z,99250.05
2019-01-15T07:00:16.543Z,99246.34
2019-01-15T07:02:45.398Z,99246.92
2019-01-15T07:05:14.485Z,99247.44
2019-01-15T07:07:43.462Z,99250.83
2019-01-15T07:10:15.555Z,99244.84
2019-01-15T07:12:44.511Z,99251.84
2019-01-15T07:15:14.105Z,99247.16
2019-01-15T07:17:43.117Z,99247.36
2019-01-15T07:20:13.556Z,99243.15
2019-01-15T07:22:42.447Z,99245.23
2019-01-15T07:25:12.959Z,99244.72
2019-01-15T07:27:41.816Z,99253.43
2019-01-15T07:30:16.401Z,99247.12
2019-01-15T07:32:45.353Z,99245.25
2019-01-15T07:35:14.327Z,99247.59
2019-01-15T07:37:43.266Z,99246.20
2019-01-15T07:40:12.376Z,99244.47
2019-01-15T07:42:41.322Z,99252.56
2019-01-15T07:45:11.558Z,99257.84
2019-01-15T07:47:40.589Z,99254.60
2019-01-15T07:50:13.037Z,99252.63
2019-01-15T07:52:41.984Z,99258.53
2019-01-15T07:55:11.777Z,99251.73
2019-01-15T07:57:40.645Z,99250.19
2019-01-15T08:00:13.572Z,99253.03
2019-01-15T08:02:42.518Z,99257.83
2019-01-15T08:05:11.714Z,99257.31
2019-01-15T08:07:40.583Z,99260.22
2019-01-15T08:10:11.028Z,99258.99
2019-01-15T08:12:39.959Z,99262.23
2019-01-15T08:15:10.960Z,99267.36
2019-01-15T08:17:40.098Z,99265.27
2019-01-15T08:20:10.102Z,99259.55
2019-01-15T08:22:39.067Z,99266.34
2019-01-15T08:25:08.180Z,99266.72
2019-01-15T08:27:37.055Z,99267.16
2019-01-15T08:30:10.313Z,99263.34
2019-01-15T08:32:39.448Z,99257.59
2019-01-15T08:35:08.701Z,99262.89
2019-01-15T08:37:37.645Z,99251.11
2019-01-15T08:40:08.809Z,99256.02
2019-01-15T08:42:37.764Z,99258.54
2019-01-15T08:45:07.912Z,99265.22
2019-01-15T08:47:40.199Z,99279.80
2019-01-15T08:50:10.667Z,99289.03
2019-01-15T08:52:40.362Z,99283.66
2019-01-15T08:55:10.183Z,99277.53
2019-01-15T08:57:40.243Z,99292.30
2019-01-15T09:00:11.472Z,99287.97
2019-01-15T09:02:40.417Z,99289.42
2019-01-15T09:05:10.451Z,99285.97
2019-01-15T09:07:40.481Z,99288.45
2019-01-15T09:10:11.529Z,99286.62
2019-01-15T09:12:40.721Z,99298.30
2019-01-15T09:15:12.274Z,99296.52
2019-01-15T09:17:41.427Z,99290.85
2019-01-15T09:20:13.778Z,99297.44
2019-01-15T09:22:42.741Z,99301.59
2019-01-15T09:25:11.769Z,99298.22
2019-01-15T09:27:40.833Z,99295.45
2019-01-15T09:30:13.837Z,99296.06
2019-01-15T09:32:42.741Z,99297.69
2019-01-15T09:35:11.704Z,99290.41
2019-01-15T09:37:41.641Z,99294.27
2019-01-15T09:40:13.886Z,99300.82
2019-01-15T09:42:42.786Z,99304.52
2019-01-15T09:45:14.049Z,99305.30
2019-01-15T09:47:50.789Z,99309.81
2019-01-15T09:50:19.766Z,99296.02
2019-01-15T09:52:49.145Z,99287.22
2019-01-15T09:55:18.180Z,99297.23
2019-01-15T09:57:47.318Z,99292.03
2019-01-15T10:00:17.386Z,99286.82
2019-01-15T10:02:46.443Z,99285.75
2019-01-15T10:05:15.614Z,99293.41
2019-01-15T10:07:44.922Z,99287.89
2019-01-15T10:10:14.038Z,99283.84
2019-01-15T10:12:42.991Z,99283.52
2019-01-15T10:15:13.644Z,99282.58
2019-01-15T10:17:42.960Z,99287.63
2019-01-15T10:20:13.239Z,99274.00
2019-01-15T10:22:42.391Z,99276.20
2019-01-15T10:25:14.845Z,99271.98
2019-01-15T10:27:44.658Z,99268.30
2019-01-15T10:30:27.945Z,99259.88
2019-01-15T10:33:21.486Z,99248.37
2019-01-15T10:35:53.053Z,99245.77
2019-01-15T10:38:22.512Z,99238.34
2019-01-15T10:40:52.057Z,99238.34
2019-01-15T10:43:21.459Z,99227.37
2019-01-15T10:45:50.604Z,99219.00
2019-01-15T10:48:19.693Z,99216.27
2019-01-15T10:50:48.643Z,99208.17
2019-01-15T10:53:17.600Z,99198.46
2019-01-15T10:55:46.535Z,99198.46
2019-01-15T10:58:17.646Z,99190.28
2019-01-15T11:00:46.170Z,99189.24
2019-01-15T11:03:15.090Z,99173.38
2019-01-15T11:05:44.230Z,99185.11
2019-01-15T11:08:13.383Z,99189.27
2019-01-15T11:10:43.299Z,99185.17
2019-01-15T11:13:13.237Z,99176.63
2019-01-15T11:15:43.448Z,99181.61
2019-01-15T11:18:13.629Z,99175.92
2019-01-15T11:20:43.472Z,99164.91
2019-01-15T11:23:12.468Z,99167.47
2019-01-15T11:25:41.409Z,99172.83
2019-01-15T11:28:10.354Z,99172.90
2019-01-15T11:30:39.186Z,99174.65
2019-01-15T11:33:08.061Z,99175.83
2019-01-15T11:35:36.998Z,99169.91
2019-01-15T11:38:05.956Z,99168.43
2019-01-15T11:40:34.830Z,99167.38
2019-01-15T11:43:03.927Z,99177.48
2019-01-15T11:45:32.860Z,99169.44
2019-01-15T11:48:01.916Z,99163.27
2019-01-15T11:50:30.878Z,99160.41
2019-01-15T11:52:59.678Z,99160.56
2019-01-15T11:55:28.635Z,99155.89
2019-01-15T11:57:57.626Z,99160.54
2019-01-15T12:00:40.609Z,99152.27
2019-01-15T12:03:20.897Z,99156.11
2019-01-15T12:06:15.091Z,99157.11
2019-01-15T12:09:02.813Z,99147.05
2019-01-15T12:11:39.714Z,99155.04
2019-01-15T12:14:26.863Z,99144.78
2019-01-15T12:17:14.835Z,99140.02
2019-01-15T12:19:52.139Z,99131.05
2019-01-15T12:22:45.782Z,99133.87
2019-01-15T12:25:34.185Z,99143.00
2019-01-15T12:28:12.180Z,99131.59
2019-01-15T12:30:49.364Z,99137.97
2019-01-15T12:33:40.277Z,99137.66
2019-01-15T12:36:40.018Z,99134.08
2019-01-15T12:39:40.031Z,99139.48
2019-01-15T12:42:20.337Z,99132.32
2019-01-15T12:45:18.204Z,99126.04
2019-01-15T12:48:03.587Z,99129.41
2019-01-15T12:50:51.563Z,99123.28
2019-01-15T12:53:38.468Z,99119.61
2019-01-15T12:56:28.976Z,99122.58
2019-01-15T12:59:32.021Z,99119.31
2019-01-15T13:02:29.092Z,99118.88
2019-01-15T13:05:18.351Z,99127.86
2019-01-15T13:08:05.071Z,99119.73
2019-01-15T13:11:07.572Z,99114.81
2019-01-15T13:14:01.954Z,99108.20
2019-01-15T13:16:49.834Z,99117.48
2019-01-15T13:19:43.888Z,99121.36
2019-01-15T13:22:29.802Z,99114.88
2019-01-15T13:25:23.832Z,99119.39
2019-01-15T13:28:11.779Z,99120.15
2019-01-15T13:30:57.331Z,99121.48
2019-01-15T13:33:38.939Z,99126.80
2019-01-15T13:36:17.273Z,99129.87
2019-01-15T13:39:08.972Z,99122.16
2019-01-15T13:41:55.503Z,99120.52
2019-01-15T13:44:42.185Z,99120.88
2019-01-15T13:47:29.225Z,99117.87
2019-01-15T13:50:18.063Z,99119.52
2019-01-15T13:53:18.183Z,99117.03
2019-01-15T13:56:04.806Z,99122.09
2019-01-15T13:58:45.269Z,99124.16
2019-01-15T14:01:32.443Z,99125.92
2019-01-15T14:04:19.248Z,99127.13
2019-01-15T14:07:04.421Z,99131.80
2019-01-15T14:09:58.568Z,99126.02
2019-01-15T14:12:45.467Z,99130.29
2019-01-15T14:15:49.122Z,99135.05
2019-01-15T14:18:42.229Z,99132.56
2019-01-15T14:21:25.575Z,99136.42
2019-01-15T14:24:13.458Z,99131.38
2019-01-15T14:26:55.347Z,99129.71
2019-01-15T14:29:43.156Z,99129.41
2019-01-15T14:32:30.165Z,99122.95
2019-01-15T14:35:27.345Z,99126.04
2019-01-15T14:38:14.165Z,99125.01
2019-01-15T14:41:00.725Z,99124.70
2019-01-15T14:43:47.282Z,99120.09
2019-01-15T14:46:35.160Z,99127.28
2019-01-15T14:49:16.882Z,99124.59
2019-01-15T14:52:08.010Z,99121.19
2019-01-15T14:55:02.719Z,99108.35
2019-01-15T14:57:58.300Z,99108.56
2019-01-15T15:00:54.725Z,99101.73
2019-01-15T15:03:52.182Z,99107.53
2019-01-15T15:06:35.832Z,99104.20
2019-01-15T15:09:19.365Z,99101.86
2019-01-15T15:11:58.927Z,99098.40
2019-01-15T15:14:40.025Z,99093.82
2019-01-15T15:17:34.112Z,99097.97
2019-01-15T15:20:26.671Z,99098.15
2019-01-15T15:23:08.275Z,99094.67
2019-01-15T15:25:54.886Z,99098.64
2019-01-15T15:28:37.220Z,99101.19
2019-01-15T15:31:24.088Z,99101.01
2019-01-15T15:34:12.294Z,99097.19
2019-01-15T15:36:53.416Z,99098.86
2019-01-15T15:39:35.098Z,99100.03
2019-01-15T15:42:26.434Z,99102.04
2019-01-15T15:45:14.384Z,99096.91
2019-01-15T15:47:54.452Z,99091.42
2019-01-15T15:50:34.701Z,99096.31
2019-01-15T15:53:21.652Z,99098.03
2019-01-15T15:56:10.805Z,99101.95
2019-01-15T15:58:48.940Z,99107.98
2019-01-15T16:01:37.132Z,99099.64
2019-01-15T16:04:23.917Z,99095.37
2019-01-15T16:07:11.807Z,99101.73
2019-01-15T16:09:58.594Z,99103.13
2019-01-15T16:12:47.025Z,99096.79
2019-01-15T16:15:41.108Z,99098.45
2019-01-15T16:18:22.236Z,99101.10
2019-01-15T16:21:14.955Z,99095.06
2019-01-15T16:24:03.272Z,99091.16
2019-01-15T16:27:03.304Z,99086.00
2019-01-15T16:29:48.613Z,99091.63
2019-01-15T16:32:48.601Z,99087.39
2019-01-15T16:35:35.485Z,99088.91
2019-01-15T16:38:17.070Z,99084.91
2019-01-15T16:41:14.198Z,99091.88
2019-01-15T16:44:01.147Z,99087.55
2019-01-15T16:46:48.024Z,99088.03
2019-01-15T16:49:34.182Z,99082.05
2019-01-15T16:52:14.030Z,99085.36
2019-01-15T16:55:00.930Z,99077.93
2019-01-15T16:57:47.859Z,99082.48
2019-01-15T17:00:36.629Z,99084.81
2019-01-15T17:03:31.777Z,99081.05
2019-01-15T17:06:25.451Z,99084.88
2019-01-15T17:09:15.263Z,99088.48
2019-01-15T17:12:06.241Z,99099.31
2019-01-15T17:14:57.187Z,99088.60
2019-01-15T17:17:45.096Z,99080.72
2019-01-15T17:20:27.471Z,99080.88
2019-01-15T17:23:14.088Z,99076.35
2019-01-15T17:26:00.727Z,99084.39
2019-01-15T17:28:54.656Z,99077.84
2019-01-15T17:31:45.715Z,99084.81
2019-01-15T17:34:25.902Z,99080.97
2019-01-15T17:37:05.034Z,99078.96
2019-01-15T17:40:05.038Z,99084.12
2019-01-15T17:42:51.895Z,99081.11
2019-01-15T17:45:35.951Z,99074.11
2019-01-15T17:48:18.672Z,99074.62
2019-01-15T17:51:12.677Z,99073.47
2019-01-15T17:54:03.247Z,99072.50
2019-01-15T17:56:54.425Z,99074.59
2019-01-15T17:59:51.372Z,99067.41
2019-01-15T18:02:43.622Z,99070.86
2019-01-15T18:05:29.852Z,99072.20
2019-01-15T18:08:31.314Z,99071.73
2019-01-15T18:11:15.982Z,99069.49
2019-01-15T18:14:11.702Z,99081.97
2019-01-15T18:16:51.811Z,99077.28
2019-01-15T18:19:44.861Z,99082.09
2019-01-15T18:22:35.651Z,99083.88
2019-01-15T18:25:36.720Z,99084.51
2019-01-15T18:28:23.241Z,99083.20
2019-01-15T18:31:23.258Z,99078.36
2019-01-15T18:34:29.636Z,99082.42
2019-01-15T18:37:13.944Z,99084.91
2019-01-15T18:40:20.158Z,99090.12
2019-01-15T18:43:06.739Z,99077.72
2019-01-15T18:45:53.020Z,99080.59
2019-01-15T18:48:33.825Z,99072.67
2019-01-15T18:51:27.693Z,99076.25
2019-01-15T18:54:14.399Z,99073.98
2019-01-15T18:57:12.292Z,99073.86
2019-01-15T19:00:06.284Z,99065.48
2019-01-15T19:02:46.585Z,99066.89
2019-01-15T19:05:43.799Z,99058.83
2019-01-15T19:08:20.635Z,99062.40
2019-01-15T19:11:07.475Z,99066.43
2019-01-15T19:14:01.101Z,99063.55
2019-01-15T19:17:03.398Z,99066.00
2019-01-15T19:19:53.936Z,99057.00
2019-01-15T19:22:45.007Z,99063.25
2019-01-15T19:25:38.772Z,99064.61
2019-01-15T19:28:25.550Z,99056.09
2019-01-15T19:31:12.323Z,99057.70
2019-01-15T19:33:59.148Z,99058.25
2019-01-15T19:36:47.806Z,99058.16
2019-01-15T19:39:21.194Z,99050.48
2019-01-15T19:42:09.082Z,99061.43
2019-01-15T19:44:50.241Z,99048.72
2019-01-15T19:47:36.151Z,99055.58
2019-01-15T19:50:18.991Z,99049.84
2019-01-15T19:53:05.828Z,99051.34
2019-01-15T19:55:48.021Z,99044.62
2019-01-15T19:58:33.209Z,99055.28
2019-01-15T20:01:30.535Z,99056.77
2019-01-15T20:04:05.932Z,99053.84
2019-01-15T20:06:57.281Z,99051.47
2019-01-15T20:09:44.224Z,99056.32
2019-01-15T20:12:22.625Z,99050.82
2019-01-15T20:15:09.443Z,99045.39
2019-01-15T20:17:45.829Z,99045.28
2019-01-15T20:20:32.685Z,99044.48
2019-01-15T20:23:19.568Z,99046.89
2019-01-15T20:26:12.836Z,99045.39
2019-01-15T20:29:07.004Z,99049.16
2019-01-15T20:31:48.787Z,99052.73
2019-01-15T20:34:30.348Z,99049.89
2019-01-15T20:37:15.663Z,99052.18
2019-01-15T20:39:57.146Z,99051.58
2019-01-15T20:42:33.121Z,99049.31
2019-01-15T20:45:19.948Z,99056.56
2019-01-15T20:48:14.023Z,99056.80
2019-01-15T20:51:04.683Z,99043.70
2019-01-15T20:53:51.932Z,99048.92
2019-01-15T20:56:38.730Z,99050.41
2019-01-15T20:59:26.633Z,99058.17
2019-01-15T21:02:17.538Z,99050.59
2019-01-15T21:05:04.401Z,99052.29
2019-01-15T21:07:51.346Z,99051.23
2019-01-15T21:10:48.540Z,99050.67
2019-01-15T21:13:32.873Z,99047.11
2019-01-15T21:16:33.039Z,99040.89
2019-01-15T21:19:19.942Z,99048.97
2019-01-15T21:22:02.544Z,99047.09
2019-01-15T21:24:59.597Z,99045.55
2019-01-15T21:27:39.368Z,99040.34
2019-01-15T21:30:41.580Z,99049.91
2019-01-15T21:33:28.381Z,99041.13
2019-01-15T21:36:12.947Z,99044.39
2019-01-15T21:38:54.897Z,99050.44
2019-01-15T21:41:40.656Z,99051.74
2019-01-15T21:44:23.936Z,99049.78
2019-01-15T21:47:11.810Z,99046.09
2019-01-15T21:49:50.808Z,99045.70
2019-01-15T21:52:32.515Z,99049.31
2019-01-15T21:55:19.373Z,99051.34
2019-01-15T21:58:06.189Z,99044.46
2019-01-15T22:03:03.487Z,99039.08
2019-01-15T22:05:54.565Z,99047.66
2019-01-15T22:08:41.184Z,99040.69
2019-01-15T22:11:27.872Z,99040.27
2019-01-15T22:14:14.800Z,99043.55
2019-01-15T22:17:05.538Z,99037.57
2019-01-15T22:19:58.557Z,99040.45
2019-01-15T22:22:45.082Z,99045.05
2019-01-15T22:25:42.265Z,99042.63
2019-01-15T22:28:42.013Z,99033.48
2019-01-15T22:31:35.991Z,99035.81
2019-01-15T22:34:36.409Z,99017.64
2019-01-15T22:37:23.044Z,99024.91
2019-01-15T22:40:05.012Z,99029.47
2019-01-15T22:42:52.852Z,99020.25
2019-01-15T22:45:33.427Z,99023.81
2019-01-15T22:48:16.969Z,99019.88
2019-01-15T22:51:13.999Z,99020.45
2019-01-15T22:54:00.723Z,99012.52
2019-01-15T22:56:56.195Z,99012.38
2019-01-15T22:59:49.862Z,99008.81
2019-01-15T23:02:40.464Z,99007.19
2019-01-15T23:05:34.798Z,99002.77
2019-01-15T23:08:13.317Z,98994.59
2019-01-15T23:10:53.518Z,99001.12
2019-01-15T23:13:44.336Z,98995.80
2019-01-15T23:16:35.264Z,98993.17
2019-01-15T23:19:16.720Z,98982.40
2019-01-15T23:21:58.545Z,98983.61
2019-01-15T23:24:58.606Z,98976.42
2019-01-15T23:27:37.518Z,98985.16
2019-01-15T23:30:36.859Z,98989.72
2019-01-15T23:33:23.393Z,98992.17
2019-01-15T23:36:04.557Z,98981.14
2019-01-15T23:39:00.567Z,98989.08
2019-01-15T23:41:56.855Z,98982.49
2019-01-15T23:44:43.495Z,98990.38
2019-01-15T23:47:40.653Z,98981.98
2019-01-15T23:50:27.953Z,98981.44
2019-01-15T23:53:06.297Z,98980.76
2019-01-15T23:56:06.238Z,98977.51
2019-01-15T23:58:52.746Z,98974.71
